Time;durP1;ratioP1;P1;durP2;ratioP2;P2;SDS_P1;SDS_P2;PMS_P1;PMS_P2;Temp;Humidity;BMP_temperature;BMP_pressure;BME280_temperature;BME280_humidity;BME280_pressure;Samples;Min_cycle;Max_cycle;Signal;HPM_P1;HPM_P2
2022/01/17 00:01:29;;;;;;;29.37;13.30;;;;;;;;;;4998867;28;20285;-77
2022/01/17 00:03:56;;;;;;;26.17;12.00;;;;;;;;;;4996090;28;20222;-77
2022/01/17 00:06:25;;;;;;;29.07;12.90;;;;;;;;;;4998672;28;20211;-77
2022/01/17 00:08:52;;;;;;;33.60;13.17;;;;;;;;;;4997913;28;20204;-77
2022/01/17 00:11:20;;;;;;;31.00;13.17;;;;;;;;;;4997486;28;20655;-77
2022/01/17 00:13:48;;;;;;;30.07;12.20;;;;;;;;;;4992915;28;20232;-77
2022/01/17 00:16:18;;;;;;;32.77;12.90;;;;;;;;;;4993625;28;20300;-77
2022/01/17 00:21:35;;;;;;;33.17;12.93;;;;;;;;;;4994461;28;20219;-77
2022/01/17 00:24:02;;;;;;;42.60;15.50;;;;;;;;;;4997335;28;20232;-77
2022/01/17 00:26:29;;;;;;;32.97;11.70;;;;;;;;;;5002103;28;20204;-77
2022/01/17 00:28:56;;;;;;;36.43;14.30;;;;;;;;;;4998297;28;20315;-77
2022/01/17 00:31:23;;;;;;;38.47;13.93;;;;;;;;;;4996609;28;20284;-77
2022/01/17 00:33:51;;;;;;;26.70;11.60;;;;;;;;;;4996697;28;20227;-76
2022/01/17 00:36:18;;;;;;;36.03;15.07;;;;;;;;;;4995950;28;20208;-77
2022/01/17 00:38:46;;;;;;;40.27;15.33;;;;;;;;;;4997822;28;20251;-77
2022/01/17 00:41:13;;;;;;;39.73;14.70;;;;;;;;;;4996917;28;20229;-77
2022/01/17 00:43:41;;;;;;;30.47;12.43;;;;;;;;;;4994171;28;20233;-75
2022/01/17 00:46:09;;;;;;;35.07;15.07;;;;;;;;;;4992216;28;20288;-75
2022/01/17 00:48:36;;;;;;;30.10;13.20;;;;;;;;;;4990699;28;20211;-77
2022/01/17 00:51:03;;;;;;;31.17;12.80;;;;;;;;;;4991222;28;20209;-77
2022/01/17 00:53:30;;;;;;;32.87;13.40;;;;;;;;;;4994286;28;20311;-77
2022/01/17 00:55:59;;;;;;;29.03;11.20;;;;;;;;;;4995091;28;20294;-77
2022/01/17 00:58:26;;;;;;;30.60;11.57;;;;;;;;;;4996516;28;20281;-77
2022/01/17 01:00:53;;;;;;;25.97;10.03;;;;;;;;;;4995500;28;20233;-77
2022/01/17 01:03:21;;;;;;;21.90;9.83;;;;;;;;;;4992037;28;20340;-77
2022/01/17 01:05:48;;;;;;;25.60;10.10;;;;;;;;;;4993740;28;20201;-77
2022/01/17 01:08:15;;;;;;;23.03;9.57;;;;;;;;;;4999061;28;20212;-77
2022/01/17 01:10:43;;;;;;;22.67;9.60;;;;;;;;;;4995824;28;20235;-77
2022/01/17 01:13:12;;;;;;;21.53;10.07;;;;;;;;;;4992136;28;20224;-77
2022/01/17 01:15:58;;;;;;;22.97;10.40;;;;;;;;;;4997035;28;20316;-77
2022/01/17 01:18:38;;;;;;;28.17;11.40;;;;;;;;;;5004158;28;20286;-77
2022/01/17 01:21:41;;;;;;;24.00;10.70;;;;;;;;;;4999296;28;20199;-76
2022/01/17 01:29:47;;;;;;;28.33;11.73;;;;;;;;;;4981779;28;20255;-76
2022/01/17 01:32:19;;;;;;;30.10;11.20;;;;;;;;;;4996731;28;20232;-75
2022/01/17 01:34:50;;;;;;;26.50;12.03;;;;;;;;;;4997322;28;20251;-76
2022/01/17 01:37:18;;;;;;;27.03;11.30;;;;;;;;;;4997544;28;20264;-77
2022/01/17 01:39:46;;;;;;;30.80;12.17;;;;;;;;;;5002587;28;20212;-76
2022/01/17 01:42:16;;;;;;;27.83;11.30;;;;;;;;;;4997931;28;20224;-77
2022/01/17 01:44:47;;;;;;;30.07;12.77;;;;;;;;;;4994689;28;20212;-75
2022/01/17 01:47:14;;;;;;;32.53;14.00;;;;;;;;;;5000146;28;20579;-76
2022/01/17 01:49:41;;;;;;;34.97;14.23;;;;;;;;;;4998763;28;20223;-76
2022/01/17 01:52:08;;;;;;;32.27;13.83;;;;;;;;;;4995395;28;20244;-76
2022/01/17 01:54:36;;;;;;;29.33;12.53;;;;;;;;;;4997682;28;20708;-77
2022/01/17 01:57:03;;;;;;;35.57;14.17;;;;;;;;;;4996558;28;20208;-76
2022/01/17 01:59:30;;;;;;;31.57;13.23;;;;;;;;;;5003650;28;20273;-77
2022/01/17 02:01:59;;;;;;;28.73;12.37;;;;;;;;;;4999695;28;20648;-77
2022/01/17 02:04:26;;;;;;;24.77;10.97;;;;;;;;;;5001892;28;20196;-77
2022/01/17 02:06:54;;;;;;;23.37;10.20;;;;;;;;;;4995811;28;20370;-77
2022/01/17 02:09:23;;;;;;;23.70;11.00;;;;;;;;;;4997476;28;20247;-77
2022/01/17 02:11:50;;;;;;;26.40;11.03;;;;;;;;;;4995972;28;20291;-75
2022/01/17 02:14:18;;;;;;;27.37;11.17;;;;;;;;;;4995823;28;20220;-77
2022/01/17 02:16:47;;;;;;;28.30;11.90;;;;;;;;;;4997405;28;20205;-77
2022/01/17 02:19:18;;;;;;;24.77;10.63;;;;;;;;;;4993773;28;20208;-77
2022/01/17 02:21:49;;;;;;;26.20;11.53;;;;;;;;;;4995083;28;20711;-77
2022/01/17 02:24:18;;;;;;;23.70;11.10;;;;;;;;;;4995415;28;20607;-77
2022/01/17 02:26:45;;;;;;;24.03;10.93;;;;;;;;;;4996827;28;20286;-76
2022/01/17 02:29:13;;;;;;;22.90;10.63;;;;;;;;;;4991590;28;20296;-75
2022/01/17 02:31:40;;;;;;;23.97;10.47;;;;;;;;;;4996501;28;20208;-78
2022/01/17 02:34:08;;;;;;;22.57;10.13;;;;;;;;;;4996514;28;20649;-78
2022/01/17 02:36:35;;;;;;;24.13;11.50;;;;;;;;;;4994578;28;20687;-75
2022/01/17 02:39:04;;;;;;;26.13;10.63;;;;;;;;;;4994581;28;20685;-76
2022/01/17 02:41:31;;;;;;;21.90;10.07;;;;;;;;;;4995035;28;20654;-78
2022/01/17 02:44:01;;;;;;;25.70;10.47;;;;;;;;;;4995940;28;20275;-76
2022/01/17 02:46:28;;;;;;;22.03;10.20;;;;;;;;;;4996633;28;20206;-75
2022/01/17 02:48:56;;;;;;;23.77;10.40;;;;;;;;;;4991682;28;20228;-77
2022/01/17 02:51:23;;;;;;;23.20;10.50;;;;;;;;;;4992578;28;20197;-77
2022/01/17 02:53:51;;;;;;;21.70;9.77;;;;;;;;;;4993391;28;20230;-77
2022/01/17 02:56:19;;;;;;;19.37;9.33;;;;;;;;;;4993639;28;20232;-77
2022/01/17 02:58:46;;;;;;;22.20;9.33;;;;;;;;;;4993713;28;20295;-77
2022/01/17 03:01:15;;;;;;;21.00;9.53;;;;;;;;;;4993361;28;20205;-76
2022/01/17 03:03:43;;;;;;;19.23;8.90;;;;;;;;;;4992770;28;20307;-76
2022/01/17 03:06:10;;;;;;;20.73;8.90;;;;;;;;;;4994582;28;20226;-76
2022/01/17 03:08:38;;;;;;;17.83;8.53;;;;;;;;;;4995652;28;20203;-77
2022/01/17 03:11:06;;;;;;;21.37;9.53;;;;;;;;;;4990069;28;20300;-76
2022/01/17 03:13:36;;;;;;;19.07;8.93;;;;;;;;;;4991128;28;20781;-76
2022/01/17 03:16:05;;;;;;;18.97;8.43;;;;;;;;;;4993630;28;20694;-76
2022/01/17 03:18:33;;;;;;;20.47;8.97;;;;;;;;;;4993311;28;20303;-77
2022/01/17 03:21:01;;;;;;;20.63;8.30;;;;;;;;;;4991835;28;20217;-75
2022/01/17 03:23:28;;;;;;;18.40;8.23;;;;;;;;;;4994430;28;20319;-75
2022/01/17 03:25:57;;;;;;;16.03;7.90;;;;;;;;;;4993485;28;20201;-76
2022/01/17 03:28:25;;;;;;;16.43;8.17;;;;;;;;;;4999624;28;20192;-76
2022/01/17 03:30:53;;;;;;;20.83;8.93;;;;;;;;;;4994106;28;20213;-76
2022/01/17 03:33:21;;;;;;;18.50;8.90;;;;;;;;;;4992720;28;20242;-76
2022/01/17 03:35:48;;;;;;;22.73;10.23;;;;;;;;;;4992202;28;20227;-76
2022/01/17 03:38:17;;;;;;;23.90;10.30;;;;;;;;;;4992062;28;20227;-76
2022/01/17 03:40:46;;;;;;;24.37;11.03;;;;;;;;;;4989466;28;20668;-76
2022/01/17 03:43:14;;;;;;;26.90;10.63;;;;;;;;;;4994290;28;20268;-76
2022/01/17 03:45:41;;;;;;;29.13;11.60;;;;;;;;;;4992963;28;20578;-75
2022/01/17 03:48:10;;;;;;;28.90;11.47;;;;;;;;;;4995814;28;20210;-76
2022/01/17 03:50:37;;;;;;;26.47;10.27;;;;;;;;;;4996665;28;20220;-75
2022/01/17 03:53:05;;;;;;;24.30;9.93;;;;;;;;;;4993625;28;20225;-76
2022/01/17 03:55:34;;;;;;;24.50;10.90;;;;;;;;;;4993861;28;20235;-76
2022/01/17 03:58:01;;;;;;;25.80;10.83;;;;;;;;;;4995242;28;20664;-77
2022/01/17 04:00:29;;;;;;;27.23;10.73;;;;;;;;;;4994148;28;20299;-77
2022/01/17 04:02:57;;;;;;;28.60;10.80;;;;;;;;;;4991415;28;20232;-75
2022/01/17 04:05:26;;;;;;;27.20;10.07;;;;;;;;;;4994463;28;20275;-74
2022/01/17 04:07:53;;;;;;;26.23;10.87;;;;;;;;;;4993118;28;20209;-74
2022/01/17 04:10:20;;;;;;;26.40;10.67;;;;;;;;;;4991670;28;20208;-76
2022/01/17 04:12:48;;;;;;;32.23;11.63;;;;;;;;;;4992003;28;20683;-76
2022/01/17 04:15:15;;;;;;;32.77;12.00;;;;;;;;;;4995302;28;20227;-76
2022/01/17 04:17:43;;;;;;;32.73;12.17;;;;;;;;;;4992484;28;20300;-74
2022/01/17 04:20:14;;;;;;;41.37;13.53;;;;;;;;;;4992578;28;20511;-76
2022/01/17 04:22:49;;;;;;;38.10;13.43;;;;;;;;;;4992689;28;20236;-76
2022/01/17 04:25:16;;;;;;;38.40;13.80;;;;;;;;;;4990478;28;20208;-76
2022/01/17 04:27:43;;;;;;;37.23;12.90;;;;;;;;;;4991723;28;20752;-76
2022/01/17 04:30:13;;;;;;;37.30;12.87;;;;;;;;;;4992204;28;20355;-76
2022/01/17 04:32:41;;;;;;;36.17;12.80;;;;;;;;;;4991293;28;20229;-76
2022/01/17 04:35:09;;;;;;;31.03;12.00;;;;;;;;;;4988048;28;20243;-76
2022/01/17 04:37:36;;;;;;;35.30;12.30;;;;;;;;;;4992916;28;20683;-76
2022/01/17 04:40:05;;;;;;;30.90;11.63;;;;;;;;;;4991878;28;20211;-76
2022/01/17 04:42:32;;;;;;;35.03;12.13;;;;;;;;;;4993098;28;20236;-76
2022/01/17 04:45:11;;;;;;;29.47;11.43;;;;;;;;;;4993209;28;20298;-76
2022/01/17 04:47:38;;;;;;;34.70;12.10;;;;;;;;;;4991797;28;20201;-77
2022/01/17 04:50:06;;;;;;;30.00;11.77;;;;;;;;;;4993436;28;20197;-76
2022/01/17 04:52:35;;;;;;;24.90;10.10;;;;;;;;;;4992431;28;20236;-76
2022/01/17 04:55:02;;;;;;;38.30;11.70;;;;;;;;;;4992367;28;20315;-76
2022/01/17 04:57:31;;;;;;;30.27;12.47;;;;;;;;;;4991596;28;20204;-77
2022/01/17 04:59:58;;;;;;;26.70;11.43;;;;;;;;;;4991038;28;20244;-77
2022/01/17 05:02:25;;;;;;;30.00;10.87;;;;;;;;;;4990212;28;20256;-77
2022/01/17 05:04:53;;;;;;;34.60;11.07;;;;;;;;;;4989702;28;20207;-77
2022/01/17 05:07:20;;;;;;;30.93;11.47;;;;;;;;;;4990729;28;20207;-77
2022/01/17 05:09:47;;;;;;;28.27;11.33;;;;;;;;;;4993770;28;20300;-77
2022/01/17 05:12:15;;;;;;;27.93;10.00;;;;;;;;;;4991982;28;20222;-76
2022/01/17 05:14:48;;;;;;;29.23;11.20;;;;;;;;;;4992805;28;20291;-77
2022/01/17 05:17:36;;;;;;;32.67;11.87;;;;;;;;;;4987017;28;20251;-77
2022/01/17 05:20:04;;;;;;;37.10;11.13;;;;;;;;;;4991148;28;20204;-77
2022/01/17 05:22:33;;;;;;;35.13;10.83;;;;;;;;;;4988702;28;20307;-77
2022/01/17 05:25:00;;;;;;;36.40;12.87;;;;;;;;;;4990899;28;20217;-77
2022/01/17 05:27:27;;;;;;;31.77;12.13;;;;;;;;;;4996442;28;20208;-77
2022/01/17 05:29:56;;;;;;;36.00;12.40;;;;;;;;;;4992918;28;21848;-77
2022/01/17 05:32:23;;;;;;;29.93;11.67;;;;;;;;;;4986839;28;20730;-76
2022/01/17 05:34:50;;;;;;;30.30;11.93;;;;;;;;;;4992151;28;20318;-76
2022/01/17 05:37:17;;;;;;;34.47;11.90;;;;;;;;;;4987931;28;20216;-77
2022/01/17 05:39:45;;;;;;;34.20;12.87;;;;;;;;;;4990477;28;20974;-76
2022/01/17 05:42:17;;;;;;;34.70;12.07;;;;;;;;;;4989345;28;20306;-76
2022/01/17 05:44:44;;;;;;;33.23;12.13;;;;;;;;;;4989386;28;20590;-76
2022/01/17 05:47:13;;;;;;;31.43;11.77;;;;;;;;;;4991196;28;20213;-76
2022/01/17 05:49:40;;;;;;;31.93;12.30;;;;;;;;;;4991149;28;20359;-77
2022/01/17 05:52:08;;;;;;;32.27;11.57;;;;;;;;;;4991506;28;22015;-76
2022/01/17 05:54:35;;;;;;;32.70;11.97;;;;;;;;;;4992197;28;20208;-77
2022/01/17 05:57:02;;;;;;;30.63;11.67;;;;;;;;;;4991306;28;20227;-77
2022/01/17 05:59:29;;;;;;;31.43;11.97;;;;;;;;;;4991245;28;20244;-76
2022/01/17 06:01:57;;;;;;;37.07;12.97;;;;;;;;;;4993780;28;20283;-76
2022/01/17 06:04:25;;;;;;;33.33;11.63;;;;;;;;;;4995342;28;20205;-76
2022/01/17 06:06:52;;;;;;;28.13;11.90;;;;;;;;;;4993707;28;20207;-76
2022/01/17 06:09:20;;;;;;;38.23;13.10;;;;;;;;;;4997724;28;20650;-77
2022/01/17 06:11:47;;;;;;;31.27;11.57;;;;;;;;;;4998342;28;20205;-76
2022/01/17 06:14:17;;;;;;;29.73;10.33;;;;;;;;;;4997642;28;20288;-76
2022/01/17 06:16:44;;;;;;;35.33;11.23;;;;;;;;;;4994756;28;20232;-76
2022/01/17 06:19:12;;;;;;;27.23;10.80;;;;;;;;;;4994205;28;20818;-76
2022/01/17 06:21:40;;;;;;;28.50;11.23;;;;;;;;;;4994578;28;20292;-77
2022/01/17 06:24:09;;;;;;;33.17;11.20;;;;;;;;;;4992437;28;20233;-77
2022/01/17 06:26:37;;;;;;;34.20;10.63;;;;;;;;;;4997931;28;20204;-77
2022/01/17 06:29:05;;;;;;;26.77;9.17;;;;;;;;;;4996377;28;20216;-77
2022/01/17 06:31:32;;;;;;;31.10;9.70;;;;;;;;;;4995344;28;20209;-78
2022/01/17 06:33:59;;;;;;;26.43;9.50;;;;;;;;;;4996485;28;20300;-77
2022/01/17 06:36:26;;;;;;;28.53;9.83;;;;;;;;;;4993986;28;20258;-77
2022/01/17 06:38:55;;;;;;;21.33;8.60;;;;;;;;;;4996281;28;20266;-77
2022/01/17 06:41:23;;;;;;;26.23;9.43;;;;;;;;;;4992911;28;20972;-77
2022/01/17 06:43:50;;;;;;;29.40;11.77;;;;;;;;;;4993615;28;20901;-77
2022/01/17 06:46:18;;;;;;;31.80;10.77;;;;;;;;;;4995832;28;20287;-78
2022/01/17 06:48:46;;;;;;;24.63;9.60;;;;;;;;;;4997121;28;20287;-77
2022/01/17 06:51:14;;;;;;;36.50;10.37;;;;;;;;;;4996872;28;20263;-77
2022/01/17 06:53:41;;;;;;;30.77;10.17;;;;;;;;;;4991817;28;20691;-77
2022/01/17 06:56:09;;;;;;;23.53;9.00;;;;;;;;;;4995301;28;20232;-77
2022/01/17 06:58:37;;;;;;;30.23;9.07;;;;;;;;;;4994383;28;20323;-78
2022/01/17 07:01:05;;;;;;;25.07;8.83;;;;;;;;;;4993066;28;20208;-77
2022/01/17 07:03:32;;;;;;;20.47;7.83;;;;;;;;;;4990676;28;20312;-77
2022/01/17 07:06:00;;;;;;;23.30;7.60;;;;;;;;;;4994051;28;20275;-77
2022/01/17 07:08:27;;;;;;;21.83;6.77;;;;;;;;;;4992941;28;20197;-77
2022/01/17 07:10:54;;;;;;;20.93;6.37;;;;;;;;;;4994805;28;20289;-77
2022/01/17 07:13:23;;;;;;;18.23;5.80;;;;;;;;;;4991882;28;20221;-76
2022/01/17 07:15:50;;;;;;;20.53;5.73;;;;;;;;;;4993146;28;20311;-77
2022/01/17 07:18:17;;;;;;;16.80;6.23;;;;;;;;;;4995321;28;20575;-77
2022/01/17 07:20:46;;;;;;;18.83;6.33;;;;;;;;;;4995248;28;20197;-76
2022/01/17 07:23:13;;;;;;;18.77;6.23;;;;;;;;;;4995602;28;20252;-77
2022/01/17 07:25:40;;;;;;;21.67;6.10;;;;;;;;;;4993605;28;20212;-76
2022/01/17 07:28:08;;;;;;;22.07;7.40;;;;;;;;;;4993811;28;20256;-76
2022/01/17 07:30:38;;;;;;;28.33;7.87;;;;;;;;;;4990807;28;20212;-76
2022/01/17 07:33:07;;;;;;;23.57;6.83;;;;;;;;;;5001726;28;20263;-76
2022/01/17 07:35:34;;;;;;;17.60;6.60;;;;;;;;;;4990670;28;20213;-76
2022/01/17 07:38:02;;;;;;;24.40;7.30;;;;;;;;;;4995303;28;20303;-77
2022/01/17 07:40:31;;;;;;;23.67;8.10;;;;;;;;;;4995484;28;20524;-77
2022/01/17 07:42:58;;;;;;;18.10;7.60;;;;;;;;;;4994349;28;20301;-77
2022/01/17 07:45:27;;;;;;;20.70;7.77;;;;;;;;;;4994668;28;20300;-76
2022/01/17 07:48:33;;;;;;;26.03;8.00;;;;;;;;;;4996625;28;20657;-76
2022/01/17 07:51:00;;;;;;;22.63;7.93;;;;;;;;;;4994394;28;20205;-76
2022/01/17 07:53:27;;;;;;;27.37;8.47;;;;;;;;;;4993731;28;20223;-77
2022/01/17 07:55:56;;;;;;;18.50;7.43;;;;;;;;;;4988521;28;20201;-77
2022/01/17 07:58:23;;;;;;;22.13;8.00;;;;;;;;;;4990771;28;20254;-77
2022/01/17 08:00:50;;;;;;;22.80;8.37;;;;;;;;;;4996138;28;20580;-77
2022/01/17 08:03:18;;;;;;;21.47;8.87;;;;;;;;;;4993808;28;20319;-77
2022/01/17 08:05:46;;;;;;;22.33;8.63;;;;;;;;;;4992894;28;20216;-76
2022/01/17 08:08:13;;;;;;;21.47;9.23;;;;;;;;;;4991971;28;20227;-76
2022/01/17 08:10:40;;;;;;;28.53;10.10;;;;;;;;;;4993280;28;20511;-76
2022/01/17 08:13:09;;;;;;;27.10;9.90;;;;;;;;;;4989699;28;20323;-76
2022/01/17 08:15:38;;;;;;;31.73;11.20;;;;;;;;;;4990547;28;20232;-76
2022/01/17 08:18:05;;;;;;;34.93;11.00;;;;;;;;;;4995742;28;20255;-76
2022/01/17 08:20:34;;;;;;;24.43;9.93;;;;;;;;;;4995862;28;20294;-76
2022/01/17 08:23:01;;;;;;;20.97;8.60;;;;;;;;;;4987583;28;20256;-76
2022/01/17 08:25:28;;;;;;;28.60;10.13;;;;;;;;;;4989747;28;20950;-76
2022/01/17 08:27:56;;;;;;;21.93;9.60;;;;;;;;;;4991167;28;20216;-76
2022/01/17 08:30:23;;;;;;;25.00;9.17;;;;;;;;;;4990810;28;20211;-76
2022/01/17 08:32:51;;;;;;;28.43;9.10;;;;;;;;;;4992924;28;20298;-76
2022/01/17 08:35:18;;;;;;;22.23;8.83;;;;;;;;;;4997637;28;20216;-77
2022/01/17 08:37:46;;;;;;;25.43;9.00;;;;;;;;;;4995801;28;20319;-77
2022/01/17 08:40:16;;;;;;;24.23;9.73;;;;;;;;;;4997343;28;20212;-77
2022/01/17 08:42:43;;;;;;;26.60;9.07;;;;;;;;;;4996792;28;20224;-76
2022/01/17 08:45:11;;;;;;;25.17;8.73;;;;;;;;;;4998311;28;20300;-75
2022/01/17 08:47:39;;;;;;;33.23;10.03;;;;;;;;;;4992002;28;20287;-76
2022/01/17 08:50:07;;;;;;;24.40;9.57;;;;;;;;;;4996786;28;20671;-76
2022/01/17 08:52:34;;;;;;;36.00;14.07;;;;;;;;;;4997538;28;20315;-76
2022/01/17 08:55:01;;;;;;;25.50;10.13;;;;;;;;;;4992672;28;20295;-76
2022/01/17 08:57:30;;;;;;;28.47;11.57;;;;;;;;;;4998678;28;20311;-76
2022/01/17 08:59:57;;;;;;;31.57;11.00;;;;;;;;;;4988954;28;20208;-76
2022/01/17 09:02:24;;;;;;;30.37;11.93;;;;;;;;;;4992214;28;20231;-75
2022/01/17 09:04:51;;;;;;;27.67;11.87;;;;;;;;;;4991220;28;20299;-76
2022/01/17 09:07:19;;;;;;;28.73;12.83;;;;;;;;;;4994055;28;20228;-76
2022/01/17 09:09:47;;;;;;;33.67;13.37;;;;;;;;;;4991466;28;20779;-76
2022/01/17 09:12:15;;;;;;;31.70;13.27;;;;;;;;;;4987998;28;20256;-76
2022/01/17 09:14:44;;;;;;;35.67;13.03;;;;;;;;;;4988510;28;20201;-76
2022/01/17 09:17:11;;;;;;;31.00;12.93;;;;;;;;;;4989015;28;20228;-76
2022/01/17 09:19:39;;;;;;;30.40;11.67;;;;;;;;;;4991478;28;20208;-76
2022/01/17 09:22:07;;;;;;;29.70;12.10;;;;;;;;;;4990679;28;20232;-76
2022/01/17 09:24:35;;;;;;;30.67;12.30;;;;;;;;;;4993898;28;20231;-75
2022/01/17 09:27:02;;;;;;;34.87;12.13;;;;;;;;;;4990907;28;20201;-76
2022/01/17 09:29:29;;;;;;;41.70;20.13;;;;;;;;;;4994087;28;20213;-76
2022/01/17 09:31:58;;;;;;;30.37;12.90;;;;;;;;;;4990352;28;20205;-76
2022/01/17 09:34:25;;;;;;;30.80;12.93;;;;;;;;;;4995524;28;20291;-76
2022/01/17 09:36:53;;;;;;;36.77;12.97;;;;;;;;;;4995393;28;20224;-76
2022/01/17 09:39:20;;;;;;;25.17;10.67;;;;;;;;;;4998378;28;20223;-76
2022/01/17 09:41:48;;;;;;;34.73;14.10;;;;;;;;;;4993459;28;20207;-76
2022/01/17 09:44:15;;;;;;;47.23;16.67;;;;;;;;;;4994363;28;20240;-76
2022/01/17 09:46:45;;;;;;;32.70;14.27;;;;;;;;;;4993829;28;20672;-76
2022/01/17 09:49:21;;;;;;;28.50;11.33;;;;;;;;;;4992609;28;20205;-76
2022/01/17 09:52:07;;;;;;;45.03;19.50;;;;;;;;;;4998152;28;20197;-75
2022/01/17 09:54:36;;;;;;;33.20;13.73;;;;;;;;;;4995495;28;20212;-75
2022/01/17 09:57:06;;;;;;;31.37;12.63;;;;;;;;;;4996094;28;20318;-76
2022/01/17 09:59:34;;;;;;;32.87;15.00;;;;;;;;;;4995295;28;20574;-75
2022/01/17 10:02:02;;;;;;;31.33;12.80;;;;;;;;;;5000767;28;20214;-75
2022/01/17 10:04:31;;;;;;;37.37;16.67;;;;;;;;;;5000508;28;20215;-75
2022/01/17 10:06:59;;;;;;;32.20;13.93;;;;;;;;;;5000345;28;20283;-76
2022/01/17 10:09:27;;;;;;;35.03;13.33;;;;;;;;;;5000757;28;20220;-76
2022/01/17 10:12:05;;;;;;;29.37;13.43;;;;;;;;;;4996037;28;20220;-75
2022/01/17 10:14:36;;;;;;;37.40;14.00;;;;;;;;;;4999896;28;20248;-76
2022/01/17 10:17:04;;;;;;;32.67;15.27;;;;;;;;;;4996145;28;20228;-76
2022/01/17 10:19:33;;;;;;;34.23;14.77;;;;;;;;;;4998952;28;20240;-76
2022/01/17 10:22:02;;;;;;;33.53;14.27;;;;;;;;;;5000445;28;20213;-76
2022/01/17 10:24:39;;;;;;;44.43;19.37;;;;;;;;;;4996268;28;20217;-76
2022/01/17 10:35:27;;;;;;;30.97;13.40;;;;;;;;;;5002943;28;20624;-76
2022/01/17 10:37:58;;;;;;;32.73;14.43;;;;;;;;;;4998625;28;20224;-76
2022/01/17 10:40:26;;;;;;;36.07;14.13;;;;;;;;;;5000474;28;20595;-76
2022/01/17 10:42:55;;;;;;;32.47;13.07;;;;;;;;;;4997181;28;20239;-76
2022/01/17 10:45:24;;;;;;;31.90;13.67;;;;;;;;;;4997200;28;20297;-76
2022/01/17 10:47:52;;;;;;;29.83;14.43;;;;;;;;;;4997213;28;20244;-76
2022/01/17 10:50:20;;;;;;;31.87;14.03;;;;;;;;;;4997436;28;20283;-76
2022/01/17 10:52:49;;;;;;;22.00;9.00;;;;;;;;;;5000236;28;20278;-77
2022/01/17 10:55:18;;;;;;;29.63;13.50;;;;;;;;;;4996548;28;20288;-76
2022/01/17 10:57:47;;;;;;;29.93;12.87;;;;;;;;;;4997966;28;20609;-76
2022/01/17 11:00:16;;;;;;;29.47;13.27;;;;;;;;;;5002877;28;20212;-76
2022/01/17 11:02:45;;;;;;;30.27;13.37;;;;;;;;;;4995485;28;20256;-76
2022/01/17 11:05:14;;;;;;;27.13;12.70;;;;;;;;;;4999296;28;20240;-76
2022/01/17 11:07:42;;;;;;;31.63;13.87;;;;;;;;;;4994737;28;20208;-76
2022/01/17 11:10:19;;;;;;;31.03;14.47;;;;;;;;;;4997702;28;20296;-76
2022/01/17 11:12:47;;;;;;;29.93;13.57;;;;;;;;;;4994726;28;20717;-76
2022/01/17 11:15:14;;;;;;;27.73;12.47;;;;;;;;;;4996033;28;20239;-77
2022/01/17 11:17:48;;;;;;;44.80;20.93;;;;;;;;;;4995827;28;20235;-77
2022/01/17 11:20:16;;;;;;;28.83;12.80;;;;;;;;;;4995445;28;20201;-77
2022/01/17 11:22:44;;;;;;;37.90;16.97;;;;;;;;;;4995981;28;20228;-77
2022/01/17 11:25:13;;;;;;;53.20;25.33;;;;;;;;;;4996709;28;20211;-77
2022/01/17 11:27:41;;;;;;;26.63;11.87;;;;;;;;;;4997228;28;20211;-76
2022/01/17 11:30:09;;;;;;;29.60;13.40;;;;;;;;;;4997556;28;20212;-76
2022/01/17 11:32:36;;;;;;;28.77;12.90;;;;;;;;;;4995883;28;20328;-75
2022/01/17 11:35:04;;;;;;;26.27;12.53;;;;;;;;;;4999240;28;20223;-75
2022/01/17 11:37:34;;;;;;;28.60;12.97;;;;;;;;;;4999208;28;20231;-77
2022/01/17 11:40:02;;;;;;;33.83;14.17;;;;;;;;;;4998513;28;20243;-77
2022/01/17 11:42:30;;;;;;;25.20;12.60;;;;;;;;;;4996735;28;20662;-77
2022/01/17 11:44:59;;;;;;;28.47;12.47;;;;;;;;;;4995380;28;20241;-77
2022/01/17 11:47:45;;;;;;;27.47;12.67;;;;;;;;;;4996867;28;20666;-77
2022/01/17 11:50:31;;;;;;;26.17;12.10;;;;;;;;;;4999803;28;20284;-77
2022/01/17 11:52:59;;;;;;;25.50;10.93;;;;;;;;;;4992609;28;20256;-77
2022/01/17 11:55:41;;;;;;;31.20;11.93;;;;;;;;;;4993711;28;20739;-76
2022/01/17 11:58:21;;;;;;;27.33;11.43;;;;;;;;;;4997671;28;20240;-77
2022/01/17 12:00:51;;;;;;;24.13;10.60;;;;;;;;;;4993747;28;20552;-78
2022/01/17 12:03:19;;;;;;;23.97;10.97;;;;;;;;;;4996494;28;20305;-78
2022/01/17 12:05:46;;;;;;;22.07;10.17;;;;;;;;;;5001364;28;20218;-78
2022/01/17 12:08:18;;;;;;;24.10;11.20;;;;;;;;;;4998670;28;20232;-77
2022/01/17 12:10:47;;;;;;;21.83;11.23;;;;;;;;;;4995756;28;20243;-78
2022/01/17 12:13:41;;;;;;;20.07;10.00;;;;;;;;;;4994883;28;20723;-78
2022/01/17 12:16:17;;;;;;;21.97;10.47;;;;;;;;;;4998248;28;20201;-75
2022/01/17 12:18:45;;;;;;;25.80;11.10;;;;;;;;;;4995695;28;20702;-76
2022/01/17 12:21:19;;;;;;;24.67;10.47;;;;;;;;;;4990315;28;20211;-76
2022/01/17 12:23:46;;;;;;;19.27;9.03;;;;;;;;;;4985112;28;20327;-75
2022/01/17 12:26:25;;;;;;;22.00;9.17;;;;;;;;;;4992674;28;20205;-76
2022/01/17 12:28:53;;;;;;;19.47;9.63;;;;;;;;;;4989044;28;20681;-75
2022/01/17 12:31:35;;;;;;;21.90;10.07;;;;;;;;;;4987541;28;21131;-75
2022/01/17 12:34:16;;;;;;;16.53;9.00;;;;;;;;;;4992627;28;20282;-75
2022/01/17 12:36:43;;;;;;;20.40;9.80;;;;;;;;;;4988300;28;20264;-75
2022/01/17 12:39:12;;;;;;;20.33;9.30;;;;;;;;;;4995953;28;20346;-75
2022/01/17 12:41:41;;;;;;;18.93;9.47;;;;;;;;;;4993796;28;20227;-75
2022/01/17 12:44:15;;;;;;;21.73;10.63;;;;;;;;;;4992142;28;20224;-76
2022/01/17 12:46:43;;;;;;;18.20;9.33;;;;;;;;;;4997526;28;20292;-75
2022/01/17 12:49:10;;;;;;;19.20;10.20;;;;;;;;;;4992223;28;20192;-75
2022/01/17 12:51:42;;;;;;;17.97;8.87;;;;;;;;;;4988287;28;20216;-75
2022/01/17 12:54:12;;;;;;;24.67;13.07;;;;;;;;;;4995641;28;20256;-75
2022/01/17 12:56:43;;;;;;;19.83;8.90;;;;;;;;;;4992731;28;20204;-75
2022/01/17 12:59:10;;;;;;;16.60;8.50;;;;;;;;;;4995685;28;20225;-75
2022/01/17 13:01:41;;;;;;;16.53;8.50;;;;;;;;;;4995203;28;20203;-75
2022/01/17 13:04:11;;;;;;;17.17;8.70;;;;;;;;;;4994316;28;20223;-75
2022/01/17 13:06:39;;;;;;;22.07;9.30;;;;;;;;;;4992368;28;20572;-75
2022/01/17 13:09:11;;;;;;;17.50;8.40;;;;;;;;;;4989094;28;20292;-76
2022/01/17 13:11:40;;;;;;;18.37;9.23;;;;;;;;;;4990162;28;20209;-76
2022/01/17 13:14:07;;;;;;;20.00;9.67;;;;;;;;;;4991184;28;20708;-76
2022/01/17 13:16:35;;;;;;;19.93;9.30;;;;;;;;;;4999565;28;20753;-76
2022/01/17 13:19:04;;;;;;;18.80;9.13;;;;;;;;;;5000790;28;20231;-76
2022/01/17 13:21:31;;;;;;;18.73;9.10;;;;;;;;;;5001534;28;20219;-76
2022/01/17 13:24:01;;;;;;;22.77;10.43;;;;;;;;;;4997061;28;20258;-76
2022/01/17 13:26:31;;;;;;;20.83;9.73;;;;;;;;;;4996414;28;20200;-76
2022/01/17 13:29:00;;;;;;;23.00;10.50;;;;;;;;;;4997339;28;20396;-76
2022/01/17 13:31:28;;;;;;;20.23;9.87;;;;;;;;;;5001061;28;20209;-76
2022/01/17 13:33:56;;;;;;;20.03;9.87;;;;;;;;;;4996009;28;21027;-76
2022/01/17 13:36:25;;;;;;;23.13;10.40;;;;;;;;;;4994332;28;20234;-76
2022/01/17 13:39:06;;;;;;;27.50;14.80;;;;;;;;;;4994506;28;20307;-76
2022/01/17 13:41:35;;;;;;;20.63;10.33;;;;;;;;;;4996552;28;20751;-76
2022/01/17 13:44:02;;;;;;;20.43;10.40;;;;;;;;;;4996940;28;20225;-76
2022/01/17 13:46:30;;;;;;;20.97;9.87;;;;;;;;;;4994575;28;20296;-76
2022/01/17 13:48:57;;;;;;;14.90;7.83;;;;;;;;;;4995047;28;20197;-75
2022/01/17 13:51:25;;;;;;;19.23;9.47;;;;;;;;;;4996505;28;20219;-75
2022/01/17 13:53:54;;;;;;;15.50;8.27;;;;;;;;;;4997048;28;20220;-75
2022/01/17 13:56:22;;;;;;;20.77;10.57;;;;;;;;;;4996372;28;20304;-75
2022/01/17 13:58:54;;;;;;;16.93;8.53;;;;;;;;;;4992927;28;20725;-75
2022/01/17 14:01:21;;;;;;;15.40;7.93;;;;;;;;;;4995446;28;20292;-78
2022/01/17 14:03:48;;;;;;;18.17;7.97;;;;;;;;;;4993541;28;20806;-78
2022/01/17 14:06:16;;;;;;;18.77;9.63;;;;;;;;;;4998212;28;20235;-78
2022/01/17 14:08:44;;;;;;;16.27;9.20;;;;;;;;;;4997396;28;20582;-78
2022/01/17 14:11:12;;;;;;;15.17;7.73;;;;;;;;;;4997637;28;20224;-78
2022/01/17 14:13:44;;;;;;;17.67;7.57;;;;;;;;;;4997521;28;20286;-78
2022/01/17 14:16:17;;;;;;;18.23;7.83;;;;;;;;;;4997336;28;20296;-78
2022/01/17 14:18:45;;;;;;;13.27;7.33;;;;;;;;;;4995392;28;20320;-78
2022/01/17 14:21:21;;;;;;;12.47;6.93;;;;;;;;;;4998149;28;20868;-78
2022/01/17 14:23:49;;;;;;;14.83;7.60;;;;;;;;;;4992480;28;20234;-78
2022/01/17 14:26:26;;;;;;;16.00;8.50;;;;;;;;;;4997806;28;20295;-78
2022/01/17 14:28:53;;;;;;;13.57;7.37;;;;;;;;;;4998345;28;20209;-78
2022/01/17 14:31:22;;;;;;;22.70;9.33;;;;;;;;;;4994406;28;20212;-77
2022/01/17 14:33:52;;;;;;;13.10;6.73;;;;;;;;;;4997610;28;20276;-77
2022/01/17 14:36:19;;;;;;;12.83;6.67;;;;;;;;;;4995183;28;20216;-77
2022/01/17 14:38:47;;;;;;;11.93;6.03;;;;;;;;;;4999926;28;20324;-77
2022/01/17 14:41:18;;;;;;;11.77;6.53;;;;;;;;;;4994095;28;20227;-77
2022/01/17 14:43:54;;;;;;;11.47;6.73;;;;;;;;;;4990312;28;20776;-77
2022/01/17 14:46:27;;;;;;;10.10;5.83;;;;;;;;;;4995136;28;20660;-78
2022/01/17 14:48:55;;;;;;;14.97;6.87;;;;;;;;;;4994770;28;20288;-78